sensor_id;sensor_type;location;lat;lon;timestamp;temperature;humidity
16249;DHT22;8232;51.678;6.610;2022-08-11T00:01:04;20.00;99.90
16249;DHT22;8232;51.678;6.610;2022-08-11T00:03:32;19.80;99.90
16249;DHT22;8232;51.678;6.610;2022-08-11T00:05:59;19.80;99.90
16249;DHT22;8232;51.678;6.610;2022-08-11T00:08:29;19.70;99.90
16249;DHT22;8232;51.678;6.610;2022-08-11T00:11:00;19.60;99.90
16249;DHT22;8232;51.678;6.610;2022-08-11T00:13:33;19.60;99.90
16249;DHT22;8232;51.678;6.610;2022-08-11T00:16:01;19.70;99.90
16249;DHT22;8232;51.678;6.610;2022-08-11T00:18:30;19.70;99.90
16249;DHT22;8232;51.678;6.610;2022-08-11T00:21:04;19.80;99.90
16249;DHT22;8232;51.678;6.610;2022-08-11T00:23:32;19.70;99.90
16249;DHT22;8232;51.678;6.610;2022-08-11T00:26:00;19.80;99.90
16249;DHT22;8232;51.678;6.610;2022-08-11T00:28:34;19.90;99.90
16249;DHT22;8232;51.678;6.610;2022-08-11T00:31:03;19.80;99.90
16249;DHT22;8232;51.678;6.610;2022-08-11T00:33:35;19.90;99.90
16249;DHT22;8232;51.678;6.610;2022-08-11T00:36:04;19.90;99.90
16249;DHT22;8232;51.678;6.610;2022-08-11T00:38:34;19.90;99.90
16249;DHT22;8232;51.678;6.610;2022-08-11T00:41:10;19.90;99.90
16249;DHT22;8232;51.678;6.610;2022-08-11T00:43:50;19.90;99.90
16249;DHT22;8232;51.678;6.610;2022-08-11T00:46:31;19.90;99.90
16249;DHT22;8232;51.678;6.610;2022-08-11T00:49:10;19.90;99.90
16249;DHT22;8232;51.678;6.610;2022-08-11T00:51:58;19.80;99.90
16249;DHT22;8232;51.678;6.610;2022-08-11T00:54:45;19.60;99.90
16249;DHT22;8232;51.678;6.610;2022-08-11T00:57:38;19.60;99.90
16249;DHT22;8232;51.678;6.610;2022-08-11T01:00:15;19.30;99.90
16249;DHT22;8232;51.678;6.610;2022-08-11T01:02:53;19.00;99.90
16249;DHT22;8232;51.678;6.610;2022-08-11T01:08:54;19.00;99.90
16249;DHT22;8232;51.678;6.610;2022-08-11T01:14:50;19.30;99.90
16249;DHT22;8232;51.678;6.610;2022-08-11T01:20:58;19.30;99.90
16249;DHT22;8232;51.678;6.610;2022-08-11T01:27:09;19.20;99.90
16249;DHT22;8232;51.678;6.610;2022-08-11T01:30:14;19.20;99.90
16249;DHT22;8232;51.678;6.610;2022-08-11T01:45:40;18.80;99.90
16249;DHT22;8232;51.678;6.610;2022-08-11T01:48:15;18.90;99.90
16249;DHT22;8232;51.678;6.610;2022-08-11T01:51:04;18.90;99.90
16249;DHT22;8232;51.678;6.610;2022-08-11T01:53:47;18.90;99.90
16249;DHT22;8232;51.678;6.610;2022-08-11T01:56:37;18.80;99.90
16249;DHT22;8232;51.678;6.610;2022-08-11T01:59:14;18.70;99.90
16249;DHT22;8232;51.678;6.610;2022-08-11T02:01:56;18.70;99.90
16249;DHT22;8232;51.678;6.610;2022-08-11T02:04:30;18.70;99.90
16249;DHT22;8232;51.678;6.610;2022-08-11T02:07:08;18.70;99.90
16249;DHT22;8232;51.678;6.610;2022-08-11T02:09:55;18.70;99.90
16249;DHT22;8232;51.678;6.610;2022-08-11T02:12:37;18.50;99.90
16249;DHT22;8232;51.678;6.610;2022-08-11T02:15:10;18.50;99.90
16249;DHT22;8232;51.678;6.610;2022-08-11T02:17:47;18.50;99.90
16249;DHT22;8232;51.678;6.610;2022-08-11T02:20:19;18.40;99.90
16249;DHT22;8232;51.678;6.610;2022-08-11T02:23:17;18.40;99.90
16249;DHT22;8232;51.678;6.610;2022-08-11T02:26:08;18.10;99.90
16249;DHT22;8232;51.678;6.610;2022-08-11T02:28:48;18.00;99.90
16249;DHT22;8232;51.678;6.610;2022-08-11T02:31:21;17.90;99.90
16249;DHT22;8232;51.678;6.610;2022-08-11T02:34:12;18.00;99.90
16249;DHT22;8232;51.678;6.610;2022-08-11T02:36:51;18.00;99.90
16249;DHT22;8232;51.678;6.610;2022-08-11T02:39:23;18.20;99.90
16249;DHT22;8232;51.678;6.610;2022-08-11T02:42:03;18.10;99.90
16249;DHT22;8232;51.678;6.610;2022-08-11T02:44:55;17.90;99.90
16249;DHT22;8232;51.678;6.610;2022-08-11T02:47:38;17.80;99.90
16249;DHT22;8232;51.678;6.610;2022-08-11T02:50:14;18.00;99.90
16249;DHT22;8232;51.678;6.610;2022-08-11T02:52:52;18.00;99.90
16249;DHT22;8232;51.678;6.610;2022-08-11T02:55:31;18.00;99.90
16249;DHT22;8232;51.678;6.610;2022-08-11T02:58:09;18.00;99.90
16249;DHT22;8232;51.678;6.610;2022-08-11T03:00:46;18.00;99.90
16249;DHT22;8232;51.678;6.610;2022-08-11T03:03:20;18.00;99.90
16249;DHT22;8232;51.678;6.610;2022-08-11T03:06:07;17.80;99.90
16249;DHT22;8232;51.678;6.610;2022-08-11T03:08:49;17.80;99.90
16249;DHT22;8232;51.678;6.610;2022-08-11T03:11:30;17.70;99.90
16249;DHT22;8232;51.678;6.610;2022-08-11T03:14:28;17.70;99.90
16249;DHT22;8232;51.678;6.610;2022-08-11T03:17:23;17.60;99.90
16249;DHT22;8232;51.678;6.610;2022-08-11T03:20:14;17.50;99.90
16249;DHT22;8232;51.678;6.610;2022-08-11T03:22:51;17.40;99.90
16249;DHT22;8232;51.678;6.610;2022-08-11T03:25:30;17.40;99.90
16249;DHT22;8232;51.678;6.610;2022-08-11T03:28:08;17.60;99.90
16249;DHT22;8232;51.678;6.610;2022-08-11T03:30:44;17.70;99.90
16249;DHT22;8232;51.678;6.610;2022-08-11T03:33:22;17.70;99.90
16249;DHT22;8232;51.678;6.610;2022-08-11T03:36:19;17.70;99.90
16249;DHT22;8232;51.678;6.610;2022-08-11T03:38:59;17.60;99.90
16249;DHT22;8232;51.678;6.610;2022-08-11T03:41:34;17.40;99.90
16249;DHT22;8232;51.678;6.610;2022-08-11T03:44:22;17.40;99.90
16249;DHT22;8232;51.678;6.610;2022-08-11T03:47:17;17.40;99.90
16249;DHT22;8232;51.678;6.610;2022-08-11T03:50:00;17.40;99.90
16249;DHT22;8232;51.678;6.610;2022-08-11T03:52:38;17.50;99.90
16249;DHT22;8232;51.678;6.610;2022-08-11T03:55:13;17.40;99.90
16249;DHT22;8232;51.678;6.610;2022-08-11T03:58:05;17.40;99.90
16249;DHT22;8232;51.678;6.610;2022-08-11T04:01:07;17.40;99.90
16249;DHT22;8232;51.678;6.610;2022-08-11T04:03:57;17.40;99.90
16249;DHT22;8232;51.678;6.610;2022-08-11T04:12:46;17.30;99.90
16249;DHT22;8232;51.678;6.610;2022-08-11T04:15:43;17.30;99.90
16249;DHT22;8232;51.678;6.610;2022-08-11T04:18:50;17.20;99.90
16249;DHT22;8232;51.678;6.610;2022-08-11T04:21:50;17.30;99.90
16249;DHT22;8232;51.678;6.610;2022-08-11T04:24:47;17.30;99.90
16249;DHT22;8232;51.678;6.610;2022-08-11T04:30:11;17.00;99.90
16249;DHT22;8232;51.678;6.610;2022-08-11T04:33:08;17.10;99.90
16249;DHT22;8232;51.678;6.610;2022-08-11T04:35:47;17.20;99.90
16249;DHT22;8232;51.678;6.610;2022-08-11T04:41:43;17.10;99.90
16249;DHT22;8232;51.678;6.610;2022-08-11T04:45:00;16.80;99.90
16249;DHT22;8232;51.678;6.610;2022-08-11T04:47:50;17.10;99.90
16249;DHT22;8232;51.678;6.610;2022-08-11T04:50:53;17.20;99.90
16249;DHT22;8232;51.678;6.610;2022-08-11T04:53:49;17.30;99.90
16249;DHT22;8232;51.678;6.610;2022-08-11T04:56:38;17.40;99.90
16249;DHT22;8232;51.678;6.610;2022-08-11T04:59:38;17.40;99.90
16249;DHT22;8232;51.678;6.610;2022-08-11T05:05:34;17.40;99.90
16249;DHT22;8232;51.678;6.610;2022-08-11T05:08:47;17.50;99.90
16249;DHT22;8232;51.678;6.610;2022-08-11T05:11:44;17.50;99.90
16249;DHT22;8232;51.678;6.610;2022-08-11T05:14:29;17.60;99.90
16249;DHT22;8232;51.678;6.610;2022-08-11T05:17:23;17.70;99.90
16249;DHT22;8232;51.678;6.610;2022-08-11T05:20:11;17.70;99.90
16249;DHT22;8232;51.678;6.610;2022-08-11T05:23:03;17.80;99.90
16249;DHT22;8232;51.678;6.610;2022-08-11T05:25:53;17.80;99.90
16249;DHT22;8232;51.678;6.610;2022-08-11T05:28:41;17.70;99.90
16249;DHT22;8232;51.678;6.610;2022-08-11T05:31:34;17.70;99.90
16249;DHT22;8232;51.678;6.610;2022-08-11T05:34:21;17.80;99.90
16249;DHT22;8232;51.678;6.610;2022-08-11T05:37:09;18.10;99.90
16249;DHT22;8232;51.678;6.610;2022-08-11T05:39:44;18.30;1.00
16249;DHT22;8232;51.678;6.610;2022-08-11T05:42:31;18.70;99.90
16249;DHT22;8232;51.678;6.610;2022-08-11T05:45:18;19.20;99.90
16249;DHT22;8232;51.678;6.610;2022-08-11T05:48:03;19.60;99.90
16249;DHT22;8232;51.678;6.610;2022-08-11T05:50:52;19.90;99.90
16249;DHT22;8232;51.678;6.610;2022-08-11T05:53:46;20.20;99.90
16249;DHT22;8232;51.678;6.610;2022-08-11T05:56:32;20.50;99.90
16249;DHT22;8232;51.678;6.610;2022-08-11T05:59:01;20.60;99.90
16249;DHT22;8232;51.678;6.610;2022-08-11T06:01:30;20.80;99.90
16249;DHT22;8232;51.678;6.610;2022-08-11T06:04:04;21.00;99.90
16249;DHT22;8232;51.678;6.610;2022-08-11T06:06:48;21.30;99.90
16249;DHT22;8232;51.678;6.610;2022-08-11T06:09:22;21.40;99.90
16249;DHT22;8232;51.678;6.610;2022-08-11T06:11:50;21.70;99.90
16249;DHT22;8232;51.678;6.610;2022-08-11T06:14:19;21.90;99.90
16249;DHT22;8232;51.678;6.610;2022-08-11T06:16:48;22.20;99.90
16249;DHT22;8232;51.678;6.610;2022-08-11T06:19:15;22.50;99.90
16249;DHT22;8232;51.678;6.610;2022-08-11T06:21:45;22.40;1.00
16249;DHT22;8232;51.678;6.610;2022-08-11T06:24:14;22.50;99.90
16249;DHT22;8232;51.678;6.610;2022-08-11T06:26:47;22.90;99.90
16249;DHT22;8232;51.678;6.610;2022-08-11T06:29:14;23.20;99.90
16249;DHT22;8232;51.678;6.610;2022-08-11T06:31:50;23.60;99.90
16249;DHT22;8232;51.678;6.610;2022-08-11T06:34:39;23.90;99.90
16249;DHT22;8232;51.678;6.610;2022-08-11T06:37:17;24.00;99.90
16249;DHT22;8232;51.678;6.610;2022-08-11T06:39:51;24.00;99.90
16249;DHT22;8232;51.678;6.610;2022-08-11T06:42:33;24.10;99.90
16249;DHT22;8232;51.678;6.610;2022-08-11T06:45:06;24.10;99.90
16249;DHT22;8232;51.678;6.610;2022-08-11T06:47:42;24.00;99.90
16249;DHT22;8232;51.678;6.610;2022-08-11T06:50:11;24.20;99.90
16249;DHT22;8232;51.678;6.610;2022-08-11T06:52:58;24.60;99.90
16249;DHT22;8232;51.678;6.610;2022-08-11T06:55:28;24.90;99.90
16249;DHT22;8232;51.678;6.610;2022-08-11T06:58:15;25.30;99.90
16249;DHT22;8232;51.678;6.610;2022-08-11T07:01:04;25.30;99.90
16249;DHT22;8232;51.678;6.610;2022-08-11T07:03:38;25.60;99.90
16249;DHT22;8232;51.678;6.610;2022-08-11T07:06:18;25.90;99.90
16249;DHT22;8232;51.678;6.610;2022-08-11T07:09:18;26.10;99.90
16249;DHT22;8232;51.678;6.610;2022-08-11T07:12:28;26.40;99.90
16249;DHT22;8232;51.678;6.610;2022-08-11T07:15:19;26.40;99.90
16249;DHT22;8232;51.678;6.610;2022-08-11T07:18:06;26.60;99.90
16249;DHT22;8232;51.678;6.610;2022-08-11T07:20:54;26.40;99.90
16249;DHT22;8232;51.678;6.610;2022-08-11T07:23:49;26.90;99.90
16249;DHT22;8232;51.678;6.610;2022-08-11T07:26:36;27.10;99.90
16249;DHT22;8232;51.678;6.610;2022-08-11T07:29:31;27.30;99.90
16249;DHT22;8232;51.678;6.610;2022-08-11T07:32:01;28.10;99.90
16249;DHT22;8232;51.678;6.610;2022-08-11T07:34:35;28.20;99.90
16249;DHT22;8232;51.678;6.610;2022-08-11T07:37:14;28.10;99.90
16249;DHT22;8232;51.678;6.610;2022-08-11T07:39:43;28.10;99.90
16249;DHT22;8232;51.678;6.610;2022-08-11T07:42:14;28.00;99.90
16249;DHT22;8232;51.678;6.610;2022-08-11T07:44:43;28.30;99.90
16249;DHT22;8232;51.678;6.610;2022-08-11T07:47:29;28.60;99.90
16249;DHT22;8232;51.678;6.610;2022-08-11T07:50:14;29.10;99.90
16249;DHT22;8232;51.678;6.610;2022-08-11T07:53:01;29.40;99.90
16249;DHT22;8232;51.678;6.610;2022-08-11T07:55:29;29.60;99.90
16249;DHT22;8232;51.678;6.610;2022-08-11T07:57:59;30.00;99.90
16249;DHT22;8232;51.678;6.610;2022-08-11T08:00:45;30.70;99.90
16249;DHT22;8232;51.678;6.610;2022-08-11T08:03:30;30.30;99.90
16249;DHT22;8232;51.678;6.610;2022-08-11T08:06:17;30.30;99.90
16249;DHT22;8232;51.678;6.610;2022-08-11T08:09:04;30.50;99.90
16249;DHT22;8232;51.678;6.610;2022-08-11T08:11:49;30.10;99.90
16249;DHT22;8232;51.678;6.610;2022-08-11T08:14:34;30.50;99.90
16249;DHT22;8232;51.678;6.610;2022-08-11T08:17:20;31.10;99.90
16249;DHT22;8232;51.678;6.610;2022-08-11T08:20:07;30.90;99.90
16249;DHT22;8232;51.678;6.610;2022-08-11T08:22:35;30.60;99.90
16249;DHT22;8232;51.678;6.610;2022-08-11T08:25:05;31.50;99.90
16249;DHT22;8232;51.678;6.610;2022-08-11T08:27:34;31.70;99.90
16249;DHT22;8232;51.678;6.610;2022-08-11T08:30:02;32.00;99.90
16249;DHT22;8232;51.678;6.610;2022-08-11T08:32:47;32.70;99.90
16249;DHT22;8232;51.678;6.610;2022-08-11T08:35:15;32.90;99.90
16249;DHT22;8232;51.678;6.610;2022-08-11T08:37:42;33.40;99.90
16249;DHT22;8232;51.678;6.610;2022-08-11T08:40:12;33.90;99.90
16249;DHT22;8232;51.678;6.610;2022-08-11T08:42:43;33.60;99.90
16249;DHT22;8232;51.678;6.610;2022-08-11T08:45:12;32.90;99.90
16249;DHT22;8232;51.678;6.610;2022-08-11T08:47:46;32.20;99.90
16249;DHT22;8232;51.678;6.610;2022-08-11T08:50:16;32.70;99.90
16249;DHT22;8232;51.678;6.610;2022-08-11T08:52:49;33.40;99.90
16249;DHT22;8232;51.678;6.610;2022-08-11T08:55:20;33.60;99.90
16249;DHT22;8232;51.678;6.610;2022-08-11T08:57:49;33.10;99.90
16249;DHT22;8232;51.678;6.610;2022-08-11T09:00:18;33.10;99.90
16249;DHT22;8232;51.678;6.610;2022-08-11T09:02:46;32.60;99.90
16249;DHT22;8232;51.678;6.610;2022-08-11T09:05:16;33.90;99.90
16249;DHT22;8232;51.678;6.610;2022-08-11T09:07:44;34.30;99.90
16249;DHT22;8232;51.678;6.610;2022-08-11T09:10:13;35.10;99.90
16249;DHT22;8232;51.678;6.610;2022-08-11T09:12:43;34.20;99.90
16249;DHT22;8232;51.678;6.610;2022-08-11T09:15:11;34.90;99.90
16249;DHT22;8232;51.678;6.610;2022-08-11T09:17:41;35.00;99.90
16249;DHT22;8232;51.678;6.610;2022-08-11T09:20:12;36.10;99.90
16249;DHT22;8232;51.678;6.610;2022-08-11T09:22:43;36.00;99.90
16249;DHT22;8232;51.678;6.610;2022-08-11T09:25:31;36.90;99.90
16249;DHT22;8232;51.678;6.610;2022-08-11T09:28:19;36.60;99.90
16249;DHT22;8232;51.678;6.610;2022-08-11T09:30:48;36.70;99.90
16249;DHT22;8232;51.678;6.610;2022-08-11T09:33:18;36.40;99.90
16249;DHT22;8232;51.678;6.610;2022-08-11T09:35:47;36.40;99.90
16249;DHT22;8232;51.678;6.610;2022-08-11T09:38:17;36.80;99.90
16249;DHT22;8232;51.678;6.610;2022-08-11T09:41:14;37.10;99.90
16249;DHT22;8232;51.678;6.610;2022-08-11T09:43:45;36.30;99.90
16249;DHT22;8232;51.678;6.610;2022-08-11T09:46:30;36.60;99.90
16249;DHT22;8232;51.678;6.610;2022-08-11T09:49:00;37.50;99.90
16249;DHT22;8232;51.678;6.610;2022-08-11T09:51:31;37.50;99.90
16249;DHT22;8232;51.678;6.610;2022-08-11T09:53:59;37.90;99.90
16249;DHT22;8232;51.678;6.610;2022-08-11T09:56:32;38.30;99.90
16249;DHT22;8232;51.678;6.610;2022-08-11T09:59:20;37.20;99.90
16249;DHT22;8232;51.678;6.610;2022-08-11T10:01:49;36.50;99.90
16249;DHT22;8232;51.678;6.610;2022-08-11T10:04:22;37.00;99.90
16249;DHT22;8232;51.678;6.610;2022-08-11T10:06:52;37.90;99.90
16249;DHT22;8232;51.678;6.610;2022-08-11T10:09:36;37.40;99.90
16249;DHT22;8232;51.678;6.610;2022-08-11T10:12:07;37.70;99.90
16249;DHT22;8232;51.678;6.610;2022-08-11T10:14:40;37.00;99.90
16249;DHT22;8232;51.678;6.610;2022-08-11T10:17:25;38.00;99.90
16249;DHT22;8232;51.678;6.610;2022-08-11T10:19:54;37.80;99.90
16249;DHT22;8232;51.678;6.610;2022-08-11T10:22:23;37.60;99.90
16249;DHT22;8232;51.678;6.610;2022-08-11T10:25:09;37.90;99.90
16249;DHT22;8232;51.678;6.610;2022-08-11T10:27:54;37.70;99.90
16249;DHT22;8232;51.678;6.610;2022-08-11T10:30:26;37.30;99.90
16249;DHT22;8232;51.678;6.610;2022-08-11T10:33:12;37.90;99.90
16249;DHT22;8232;51.678;6.610;2022-08-11T10:35:57;38.40;99.90
16249;DHT22;8232;51.678;6.610;2022-08-11T10:38:26;38.50;99.90
16249;DHT22;8232;51.678;6.610;2022-08-11T10:40:54;38.90;99.90
16249;DHT22;8232;51.678;6.610;2022-08-11T10:43:37;38.60;99.90
16249;DHT22;8232;51.678;6.610;2022-08-11T10:46:06;38.70;99.90
16249;DHT22;8232;51.678;6.610;2022-08-11T10:48:52;37.70;99.90
16249;DHT22;8232;51.678;6.610;2022-08-11T10:51:20;37.60;99.90
16249;DHT22;8232;51.678;6.610;2022-08-11T10:54:01;37.50;99.90
16249;DHT22;8232;51.678;6.610;2022-08-11T10:56:46;38.10;99.90
16249;DHT22;8232;51.678;6.610;2022-08-11T10:59:33;39.10;99.90
16249;DHT22;8232;51.678;6.610;2022-08-11T11:02:01;37.90;99.90
16249;DHT22;8232;51.678;6.610;2022-08-11T11:04:36;35.80;99.90
16249;DHT22;8232;51.678;6.610;2022-08-11T11:07:16;38.20;99.90
16249;DHT22;8232;51.678;6.610;2022-08-11T11:09:48;37.60;99.90
16249;DHT22;8232;51.678;6.610;2022-08-11T11:12:24;38.30;99.90
16249;DHT22;8232;51.678;6.610;2022-08-11T11:15:10;38.70;99.90
16249;DHT22;8232;51.678;6.610;2022-08-11T11:18:03;38.70;99.90
16249;DHT22;8232;51.678;6.610;2022-08-11T11:20:38;38.60;99.90
16249;DHT22;8232;51.678;6.610;2022-08-11T11:23:11;39.30;99.90
16249;DHT22;8232;51.678;6.610;2022-08-11T11:25:57;39.00;99.90
16249;DHT22;8232;51.678;6.610;2022-08-11T11:29:00;38.50;99.90
16249;DHT22;8232;51.678;6.610;2022-08-11T11:31:35;40.50;99.90
16249;DHT22;8232;51.678;6.610;2022-08-11T11:34:20;41.30;99.90
16249;DHT22;8232;51.678;6.610;2022-08-11T11:36:50;40.00;99.90
16249;DHT22;8232;51.678;6.610;2022-08-11T11:39:21;40.50;99.90
16249;DHT22;8232;51.678;6.610;2022-08-11T11:41:51;39.50;99.90
16249;DHT22;8232;51.678;6.610;2022-08-11T11:44:19;39.70;99.90
16249;DHT22;8232;51.678;6.610;2022-08-11T11:46:48;40.80;99.90
16249;DHT22;8232;51.678;6.610;2022-08-11T11:49:18;38.40;99.90
16249;DHT22;8232;51.678;6.610;2022-08-11T11:51:46;36.80;99.90
16249;DHT22;8232;51.678;6.610;2022-08-11T11:54:14;37.20;99.90
16249;DHT22;8232;51.678;6.610;2022-08-11T11:56:42;37.20;99.90
16249;DHT22;8232;51.678;6.610;2022-08-11T11:59:11;38.60;99.90
16249;DHT22;8232;51.678;6.610;2022-08-11T12:01:57;38.30;99.90
16249;DHT22;8232;51.678;6.610;2022-08-11T12:04:26;38.10;99.90
16249;DHT22;8232;51.678;6.610;2022-08-11T12:06:54;38.00;99.90
16249;DHT22;8232;51.678;6.610;2022-08-11T12:09:42;39.50;99.90
16249;DHT22;8232;51.678;6.610;2022-08-11T12:12:09;40.50;99.90
16249;DHT22;8232;51.678;6.610;2022-08-11T12:14:54;39.60;99.90
16249;DHT22;8232;51.678;6.610;2022-08-11T12:17:22;39.80;99.90
16249;DHT22;8232;51.678;6.610;2022-08-11T12:19:51;38.00;99.90
16249;DHT22;8232;51.678;6.610;2022-08-11T12:22:18;36.20;99.90
16249;DHT22;8232;51.678;6.610;2022-08-11T12:25:04;38.00;99.90
16249;DHT22;8232;51.678;6.610;2022-08-11T12:27:49;39.20;99.90
16249;DHT22;8232;51.678;6.610;2022-08-11T12:30:18;39.60;99.90
16249;DHT22;8232;51.678;6.610;2022-08-11T12:32:45;38.30;99.90
16249;DHT22;8232;51.678;6.610;2022-08-11T12:35:15;38.50;99.90
16249;DHT22;8232;51.678;6.610;2022-08-11T12:37:46;39.80;99.90
16249;DHT22;8232;51.678;6.610;2022-08-11T12:40:21;38.40;99.90
16249;DHT22;8232;51.678;6.610;2022-08-11T12:43:10;38.70;99.90
16249;DHT22;8232;51.678;6.610;2022-08-11T12:45:58;38.60;99.90
16249;DHT22;8232;51.678;6.610;2022-08-11T12:48:29;39.80;99.90
16249;DHT22;8232;51.678;6.610;2022-08-11T12:51:19;40.10;99.90
16249;DHT22;8232;51.678;6.610;2022-08-11T12:54:09;38.50;99.90
16249;DHT22;8232;51.678;6.610;2022-08-11T12:56:38;38.30;99.90
16249;DHT22;8232;51.678;6.610;2022-08-11T12:59:24;38.30;99.90
16249;DHT22;8232;51.678;6.610;2022-08-11T13:02:11;37.70;99.90
16249;DHT22;8232;51.678;6.610;2022-08-11T13:04:58;37.60;99.90
16249;DHT22;8232;51.678;6.610;2022-08-11T13:07:28;39.20;99.90
16249;DHT22;8232;51.678;6.610;2022-08-11T13:09:57;35.10;99.90
16249;DHT22;8232;51.678;6.610;2022-08-11T13:12:27;34.00;99.90
16249;DHT22;8232;51.678;6.610;2022-08-11T13:15:10;32.60;99.90
16249;DHT22;8232;51.678;6.610;2022-08-11T13:17:40;32.20;99.90
16249;DHT22;8232;51.678;6.610;2022-08-11T13:20:09;33.90;99.90
16249;DHT22;8232;51.678;6.610;2022-08-11T13:22:41;34.90;99.90
16249;DHT22;8232;51.678;6.610;2022-08-11T13:25:10;33.10;99.90
16249;DHT22;8232;51.678;6.610;2022-08-11T13:27:38;32.10;99.90
16249;DHT22;8232;51.678;6.610;2022-08-11T13:30:06;31.80;99.90
16249;DHT22;8232;51.678;6.610;2022-08-11T13:32:51;31.60;99.90
16249;DHT22;8232;51.678;6.610;2022-08-11T13:35:21;31.50;99.90
16249;DHT22;8232;51.678;6.610;2022-08-11T13:37:50;31.40;99.90
16249;DHT22;8232;51.678;6.610;2022-08-11T13:40:19;31.20;99.90
16249;DHT22;8232;51.678;6.610;2022-08-11T13:42:47;31.20;99.90
16249;DHT22;8232;51.678;6.610;2022-08-11T13:45:15;31.10;99.90
16249;DHT22;8232;51.678;6.610;2022-08-11T13:47:42;31.10;99.90
16249;DHT22;8232;51.678;6.610;2022-08-11T13:50:10;30.90;99.90
16249;DHT22;8232;51.678;6.610;2022-08-11T13:52:38;31.10;99.90
16249;DHT22;8232;51.678;6.610;2022-08-11T13:55:10;31.00;99.90
16249;DHT22;8232;51.678;6.610;2022-08-11T13:57:48;31.30;99.90
16249;DHT22;8232;51.678;6.610;2022-08-11T14:00:16;31.00;99.90
16249;DHT22;8232;51.678;6.610;2022-08-11T14:02:44;31.10;99.90
16249;DHT22;8232;51.678;6.610;2022-08-11T14:05:16;30.80;99.90
16249;DHT22;8232;51.678;6.610;2022-08-11T14:07:48;30.90;99.90
16249;DHT22;8232;51.678;6.610;2022-08-11T14:10:19;30.80;99.90
16249;DHT22;8232;51.678;6.610;2022-08-11T14:12:52;31.00;99.90
16249;DHT22;8232;51.678;6.610;2022-08-11T14:15:40;31.10;99.90
16249;DHT22;8232;51.678;6.610;2022-08-11T14:18:12;31.00;99.90
16249;DHT22;8232;51.678;6.610;2022-08-11T14:20:43;31.10;99.90
16249;DHT22;8232;51.678;6.610;2022-08-11T14:23:36;31.80;99.90
16249;DHT22;8232;51.678;6.610;2022-08-11T14:26:06;32.50;99.90
16249;DHT22;8232;51.678;6.610;2022-08-11T14:28:51;32.20;99.90
16249;DHT22;8232;51.678;6.610;2022-08-11T14:31:21;31.60;99.90
16249;DHT22;8232;51.678;6.610;2022-08-11T14:33:51;31.50;99.90
16249;DHT22;8232;51.678;6.610;2022-08-11T14:36:20;31.40;99.90
16249;DHT22;8232;51.678;6.610;2022-08-11T14:38:47;31.50;99.90
16249;DHT22;8232;51.678;6.610;2022-08-11T14:41:17;31.40;99.90
16249;DHT22;8232;51.678;6.610;2022-08-11T14:44:02;31.50;99.90
16249;DHT22;8232;51.678;6.610;2022-08-11T14:46:47;31.70;99.90
16249;DHT22;8232;51.678;6.610;2022-08-11T14:49:32;31.60;99.90
16249;DHT22;8232;51.678;6.610;2022-08-11T14:52:00;31.80;99.90
16249;DHT22;8232;51.678;6.610;2022-08-11T14:54:29;32.10;99.90
16249;DHT22;8232;51.678;6.610;2022-08-11T14:57:16;32.10;99.90
16249;DHT22;8232;51.678;6.610;2022-08-11T14:59:45;32.20;99.90
16249;DHT22;8232;51.678;6.610;2022-08-11T15:02:13;32.20;99.90
16249;DHT22;8232;51.678;6.610;2022-08-11T15:05:00;32.20;99.90
16249;DHT22;8232;51.678;6.610;2022-08-11T15:07:27;32.40;99.90
16249;DHT22;8232;51.678;6.610;2022-08-11T15:09:56;32.30;99.90
16249;DHT22;8232;51.678;6.610;2022-08-11T15:12:25;31.90;99.90
16249;DHT22;8232;51.678;6.610;2022-08-11T15:14:53;31.80;99.90
16249;DHT22;8232;51.678;6.610;2022-08-11T15:17:38;31.50;99.90
16249;DHT22;8232;51.678;6.610;2022-08-11T15:20:09;31.20;99.90
16249;DHT22;8232;51.678;6.610;2022-08-11T15:22:54;31.50;99.90
16249;DHT22;8232;51.678;6.610;2022-08-11T15:25:41;31.60;99.90
16249;DHT22;8232;51.678;6.610;2022-08-11T15:28:10;31.30;99.90
16249;DHT22;8232;51.678;6.610;2022-08-11T15:31:01;31.20;99.90
16249;DHT22;8232;51.678;6.610;2022-08-11T15:33:50;31.10;99.90
16249;DHT22;8232;51.678;6.610;2022-08-11T15:36:36;31.20;99.90
16249;DHT22;8232;51.678;6.610;2022-08-11T15:39:26;31.20;99.90
16249;DHT22;8232;51.678;6.610;2022-08-11T15:41:59;31.10;99.90
16249;DHT22;8232;51.678;6.610;2022-08-11T15:44:49;31.00;99.90
16249;DHT22;8232;51.678;6.610;2022-08-11T15:47:39;31.00;99.90
16249;DHT22;8232;51.678;6.610;2022-08-11T15:50:09;30.80;99.90
16249;DHT22;8232;51.678;6.610;2022-08-11T15:52:45;30.70;99.90
16249;DHT22;8232;51.678;6.610;2022-08-11T15:55:13;30.60;99.90
16249;DHT22;8232;51.678;6.610;2022-08-11T15:57:42;30.70;99.90
16249;DHT22;8232;51.678;6.610;2022-08-11T16:00:29;30.70;99.90
16249;DHT22;8232;51.678;6.610;2022-08-11T16:03:13;30.70;99.90
16249;DHT22;8232;51.678;6.610;2022-08-11T16:05:59;30.60;99.90
16249;DHT22;8232;51.678;6.610;2022-08-11T16:08:27;30.70;99.90
16249;DHT22;8232;51.678;6.610;2022-08-11T16:10:55;30.60;99.90
16249;DHT22;8232;51.678;6.610;2022-08-11T16:13:22;30.50;99.90
16249;DHT22;8232;51.678;6.610;2022-08-11T16:16:09;30.40;99.90
16249;DHT22;8232;51.678;6.610;2022-08-11T16:18:44;30.60;99.90
16249;DHT22;8232;51.678;6.610;2022-08-11T16:21:13;30.50;99.90
16249;DHT22;8232;51.678;6.610;2022-08-11T16:23:43;30.40;99.90
16249;DHT22;8232;51.678;6.610;2022-08-11T16:26:13;30.30;99.90
16249;DHT22;8232;51.678;6.610;2022-08-11T16:28:42;30.30;99.90
16249;DHT22;8232;51.678;6.610;2022-08-11T16:31:11;30.30;99.90
16249;DHT22;8232;51.678;6.610;2022-08-11T16:33:41;30.30;99.90
16249;DHT22;8232;51.678;6.610;2022-08-11T16:36:09;30.20;99.90
16249;DHT22;8232;51.678;6.610;2022-08-11T16:38:54;30.20;99.90
16249;DHT22;8232;51.678;6.610;2022-08-11T16:41:23;30.10;99.90
16249;DHT22;8232;51.678;6.610;2022-08-11T16:44:09;30.20;99.90
16249;DHT22;8232;51.678;6.610;2022-08-11T16:46:56;30.10;99.90
16249;DHT22;8232;51.678;6.610;2022-08-11T16:49:30;30.10;99.90
16249;DHT22;8232;51.678;6.610;2022-08-11T16:51:58;30.10;99.90
16249;DHT22;8232;51.678;6.610;2022-08-11T16:54:29;30.10;99.90
16249;DHT22;8232;51.678;6.610;2022-08-11T16:56:57;30.00;99.90
16249;DHT22;8232;51.678;6.610;2022-08-11T16:59:47;30.00;99.90
16249;DHT22;8232;51.678;6.610;2022-08-11T17:02:17;29.90;99.90
16249;DHT22;8232;51.678;6.610;2022-08-11T17:04:59;30.00;99.90
16249;DHT22;8232;51.678;6.610;2022-08-11T17:07:45;29.90;99.90
16249;DHT22;8232;51.678;6.610;2022-08-11T17:10:35;29.80;99.90
16249;DHT22;8232;51.678;6.610;2022-08-11T17:13:27;29.80;99.90
16249;DHT22;8232;51.678;6.610;2022-08-11T17:15:59;29.80;99.90
16249;DHT22;8232;51.678;6.610;2022-08-11T17:18:43;29.80;99.90
16249;DHT22;8232;51.678;6.610;2022-08-11T17:21:14;29.80;99.90
16249;DHT22;8232;51.678;6.610;2022-08-11T17:23:44;29.70;99.90
16249;DHT22;8232;51.678;6.610;2022-08-11T17:26:13;29.70;99.90
16249;DHT22;8232;51.678;6.610;2022-08-11T17:28:42;29.60;99.90
16249;DHT22;8232;51.678;6.610;2022-08-11T17:31:12;29.60;99.90
16249;DHT22;8232;51.678;6.610;2022-08-11T17:34:00;29.50;99.90
16249;DHT22;8232;51.678;6.610;2022-08-11T17:36:45;29.50;99.90
16249;DHT22;8232;51.678;6.610;2022-08-11T17:39:14;29.50;99.90